Time;durP1;ratioP1;P1;durP2;ratioP2;P2;SDS_P1;SDS_P2;PMS_P1;PMS_P2;Temp;Humidity;BMP_temperature;BMP_pressure;BME280_temperature;BME280_humidity;BME280_pressure;Samples;Min_cycle;Max_cycle;Signal;HPM_P1;HPM_P2
2022/05/22 00:01:54;;;;;;;9.32;3.38;;;;;;;-145.50;100.00;65435.88;4921909;29;20055;-66
2022/05/22 00:04:22;;;;;;;11.35;3.50;;;;;;;-145.50;100.00;65435.88;4924765;28;20769;-67
2022/05/22 00:06:48;;;;;;;7.63;3.38;;;;;;;-145.50;100.00;65435.88;4944727;29;20078;-67
2022/05/22 00:09:15;;;;;;;8.88;3.58;;;;;;;-145.50;100.00;65435.88;4922437;28;20059;-65
2022/05/22 00:11:41;;;;;;;9.32;3.90;;;;;;;-145.50;100.00;65435.88;4944500;29;21013;-67
2022/05/22 00:14:11;;;;;;;8.32;3.45;;;;;;;-145.50;100.00;65435.88;4931910;29;20055;-66
2022/05/22 00:16:42;;;;;;;10.23;3.80;;;;;;;-145.50;100.00;65435.88;4929024;28;20126;-67
2022/05/22 00:19:13;;;;;;;10.35;3.45;;;;;;;-145.50;100.00;65435.88;4929517;29;20064;-68
2022/05/22 00:21:40;;;;;;;9.75;3.70;;;;;;;-145.50;100.00;65435.88;4919989;28;20059;-67
2022/05/22 00:24:08;;;;;;;10.57;3.90;;;;;;;-145.50;100.00;65435.88;4929154;29;20067;-68
2022/05/22 00:26:34;;;;;;;7.80;3.53;;;;;;;-145.50;100.00;65435.88;4914384;28;20052;-67
2022/05/22 00:29:01;;;;;;;11.95;4.07;;;;;;;-145.50;100.00;65435.88;4921195;29;20143;-67
2022/05/22 00:31:28;;;;;;;9.32;4.50;;;;;;;-145.50;100.00;65435.88;4923176;28;20051;-67
2022/05/22 00:33:54;;;;;;;10.75;3.67;;;;;;;-145.50;100.00;65435.88;4929405;29;20448;-68
2022/05/22 00:36:21;;;;;;;7.53;3.50;;;;;;;-145.50;100.00;65435.88;4907767;29;20055;-68
2022/05/22 00:38:48;;;;;;;7.10;3.35;;;;;;;-145.50;100.00;65435.88;4902803;28;20146;-67
2022/05/22 00:41:16;;;;;;;9.05;3.35;;;;;;;-145.50;100.00;65435.88;4921902;28;20193;-68
2022/05/22 00:43:50;;;;;;;6.65;3.03;;;;;;;-145.50;100.00;65435.88;4916323;29;20127;-68
2022/05/22 00:46:19;;;;;;;6.05;3.00;;;;;;;-145.50;100.00;65435.88;4929204;29;20055;-68
2022/05/22 00:48:48;;;;;;;6.80;3.13;;;;;;;-145.50;100.00;65435.88;4928782;28;20129;-67
2022/05/22 00:51:28;;;;;;;8.13;3.72;;;;;;;-145.50;100.00;65435.88;4925225;29;20939;-69
2022/05/22 00:54:00;;;;;;;9.55;3.97;;;;;;;-145.50;100.00;65435.88;4926520;29;20051;-68
2022/05/22 00:56:35;;;;;;;9.90;4.10;;;;;;;-145.50;100.00;65435.88;4917500;29;20054;-69
2022/05/22 00:59:05;;;;;;;7.03;3.80;;;;;;;-145.50;100.00;65435.88;4925919;29;20149;-68
2022/05/22 01:01:33;;;;;;;13.10;4.03;;;;;;;-145.50;100.00;65435.88;4907460;28;20150;-68
2022/05/22 01:04:00;;;;;;;11.43;3.83;;;;;;;-145.50;100.00;65435.88;4928534;29;20051;-68
2022/05/22 01:06:27;;;;;;;9.50;4.13;;;;;;;-145.50;100.00;65435.88;4927302;28;20130;-67
2022/05/22 01:08:54;;;;;;;8.55;4.47;;;;;;;-145.50;100.00;65435.88;4918420;29;20107;-68
2022/05/22 01:11:25;;;;;;;10.40;4.60;;;;;;;-145.50;100.00;65435.88;4918555;28;20564;-68
2022/05/22 01:14:03;;;;;;;9.18;4.25;;;;;;;-145.50;100.00;65435.88;4925161;29;20086;-66
2022/05/22 01:16:32;;;;;;;7.43;4.15;;;;;;;-145.50;100.00;65435.88;4925060;29;20077;-67
2022/05/22 01:18:58;;;;;;;12.68;4.38;;;;;;;-145.50;100.00;65435.88;4918873;29;20052;-65
2022/05/22 01:21:30;;;;;;;11.48;4.35;;;;;;;-145.50;100.00;65435.88;4921263;29;20142;-67
2022/05/22 01:23:57;;;;;;;7.72;4.47;;;;;;;-145.50;100.00;65435.88;4920776;28;20047;-66
2022/05/22 01:26:26;;;;;;;8.35;4.28;;;;;;;-145.50;100.00;65435.88;4932546;29;20052;-68
2022/05/22 01:28:52;;;;;;;;;;;;;;;-145.50;100.00;65435.88;4917921;28;20090;-67
2022/05/22 01:31:19;;;;;;;6.80;3.90;;;;;;;-145.50;100.00;65435.88;4923861;29;20632;-68
2022/05/22 01:33:47;;;;;;;13.60;4.18;;;;;;;-145.50;100.00;65435.88;4935445;29;20058;-65
2022/05/22 01:36:15;;;;;;;13.88;4.45;;;;;;;-145.50;100.00;65435.88;4914254;28;20142;-67
2022/05/22 01:38:41;;;;;;;10.40;4.93;;;;;;;-145.50;100.00;65435.88;4924736;29;20097;-67
2022/05/22 01:41:08;;;;;;;7.90;4.15;;;;;;;-145.50;100.00;65435.88;4923701;28;20066;-67
2022/05/22 01:43:35;;;;;;;8.90;4.85;;;;;;;-145.50;100.00;65435.88;4924014;29;20058;-67
2022/05/22 01:46:02;;;;;;;9.68;5.15;;;;;;;-145.50;100.00;65435.88;4917938;28;20624;-67
2022/05/22 01:48:29;;;;;;;13.73;5.40;;;;;;;-145.50;100.00;65435.88;4923309;29;20062;-67
2022/05/22 01:50:55;;;;;;;10.35;5.00;;;;;;;-145.50;100.00;65435.88;4916706;29;20154;-66
2022/05/22 01:53:22;;;;;;;12.73;4.78;;;;;;;-145.50;100.00;65435.88;4917074;28;20051;-68
2022/05/22 01:55:50;;;;;;;11.45;5.22;;;;;;;-145.50;100.00;65435.88;4927125;29;20512;-67
2022/05/22 01:58:17;;;;;;;12.27;5.57;;;;;;;-145.50;100.00;65435.88;4918205;28;20111;-67
2022/05/22 02:00:44;;;;;;;13.13;4.43;;;;;;;-145.50;100.00;65435.88;4906570;29;20170;-68
2022/05/22 02:03:10;;;;;;;7.82;4.78;;;;;;;-145.50;100.00;65435.88;4914383;28;20094;-67
2022/05/22 02:05:37;;;;;;;11.57;4.55;;;;;;;-145.50;100.00;65435.88;4929153;28;20135;-67
2022/05/22 02:08:19;;;;;;;10.65;5.47;;;;;;;-145.50;100.00;65435.88;4923823;29;20687;-68
2022/05/22 02:10:48;;;;;;;14.95;5.68;;;;;;;-145.50;100.00;65435.88;4917866;28;20047;-67
2022/05/22 02:13:18;;;;;;;12.68;5.45;;;;;;;-145.50;100.00;65435.88;4924353;29;20497;-65
2022/05/22 02:15:45;;;;;;;10.80;4.95;;;;;;;-145.50;100.00;65435.88;4917052;28;20090;-67
2022/05/22 02:18:11;;;;;;;11.73;5.28;;;;;;;-145.50;100.00;65435.88;4919265;29;20489;-64
2022/05/22 02:20:38;;;;;;;9.10;5.63;;;;;;;-145.50;100.00;65435.88;4915997;28;20966;-67
2022/05/22 02:23:05;;;;;;;10.23;5.28;;;;;;;-145.50;100.00;65435.88;4927095;29;20139;-67
2022/05/22 02:25:35;;;;;;;10.25;5.30;;;;;;;-145.50;100.00;65435.88;4924155;29;20479;-67
2022/05/22 02:28:03;;;;;;;11.18;5.50;;;;;;;-145.50;100.00;65435.88;4917919;29;20062;-67
2022/05/22 02:30:32;;;;;;;;;;;;;;;-145.50;100.00;65435.88;4920530;29;20743;-67
2022/05/22 02:32:58;;;;;;;8.95;4.75;;;;;;;-145.50;100.00;65435.88;4913758;28;19933;-68
2022/05/22 02:35:25;;;;;;;8.27;5.05;;;;;;;-145.50;100.00;65435.88;4924111;29;20058;-66
2022/05/22 02:37:54;;;;;;;9.35;5.07;;;;;;;-145.50;100.00;65435.88;4918473;28;20078;-67
2022/05/22 02:40:25;;;;;;;9.48;4.90;;;;;;;-145.50;100.00;65435.88;4922800;29;20127;-66
2022/05/22 02:42:53;;;;;;;11.13;4.97;;;;;;;-145.50;100.00;65435.88;4922217;28;20710;-67
2022/05/22 02:45:25;;;;;;;9.50;4.88;;;;;;;-145.50;100.00;65435.88;4917845;29;20055;-67
2022/05/22 02:47:53;;;;;;;9.57;4.75;;;;;;;-145.50;100.00;65435.88;4916189;29;20574;-67
2022/05/22 02:50:22;;;;;;;8.10;4.43;;;;;;;-145.50;100.00;65435.88;4918972;28;20091;-66
2022/05/22 02:52:50;;;;;;;6.53;4.60;;;;;;;-145.50;100.00;65435.88;4926362;29;20052;-64
2022/05/22 02:55:18;;;;;;;9.13;4.50;;;;;;;-145.50;100.00;65435.88;4937507;28;20599;-67
2022/05/22 02:57:45;;;;;;;9.75;4.43;;;;;;;-145.50;100.00;65435.88;4940307;29;20115;-65
2022/05/22 03:00:21;;;;;;;8.45;4.35;;;;;;;-145.50;100.00;65435.88;4933011;28;20146;-67
2022/05/22 03:02:48;;;;;;;9.15;4.60;;;;;;;-145.50;100.00;65435.88;4941967;28;20059;-65
2022/05/22 03:05:14;;;;;;;8.15;4.72;;;;;;;-145.50;100.00;65435.88;4944286;29;20119;-67
2022/05/22 03:07:45;;;;;;;9.18;4.60;;;;;;;-145.50;100.00;65435.88;4919499;28;20071;-67
2022/05/22 03:10:14;;;;;;;11.55;5.20;;;;;;;-145.50;100.00;65435.88;4926438;29;20060;-67
2022/05/22 03:12:40;;;;;;;8.77;4.85;;;;;;;-145.50;100.00;65435.88;4916707;28;20087;-67
2022/05/22 03:15:09;;;;;;;7.90;4.40;;;;;;;-145.50;100.00;65435.88;4922373;29;20715;-67
2022/05/22 03:17:36;;;;;;;6.63;4.32;;;;;;;-145.50;100.00;65435.88;4920150;28;20103;-67
2022/05/22 03:20:05;;;;;;;6.97;4.22;;;;;;;-145.50;100.00;65435.88;4926718;29;20060;-67
2022/05/22 03:22:32;;;;;;;7.55;4.90;;;;;;;-145.50;100.00;65435.88;4916297;29;20127;-68
2022/05/22 03:24:59;;;;;;;6.53;4.50;;;;;;;-145.50;100.00;65435.88;4934986;28;20052;-67
2022/05/22 03:27:25;;;;;;;9.05;4.60;;;;;;;-145.50;100.00;65435.88;4923208;29;20056;-67
2022/05/22 03:29:52;;;;;;;11.68;4.68;;;;;;;-145.50;100.00;65435.88;4919816;28;20093;-67
2022/05/22 03:32:19;;;;;;;7.25;4.38;;;;;;;-145.50;100.00;65435.88;4925829;29;20087;-67
2022/05/22 03:34:46;;;;;;;8.18;4.90;;;;;;;-145.50;100.00;65435.88;4920662;28;20138;-67
2022/05/22 03:37:14;;;;;;;9.18;5.30;;;;;;;-145.50;100.00;65435.88;4926405;29;20111;-68
2022/05/22 03:39:41;;;;;;;6.65;4.05;;;;;;;-145.50;100.00;65435.88;4920576;29;20469;-68
2022/05/22 03:42:07;;;;;;;6.28;4.05;;;;;;;-145.50;100.00;65435.88;4913343;28;20056;-67
2022/05/22 03:44:35;;;;;;;8.55;4.45;;;;;;;-145.50;100.00;65435.88;4925353;29;21053;-67
2022/05/22 03:47:03;;;;;;;11.32;4.80;;;;;;;-145.50;100.00;65435.88;4927102;29;20130;-67
2022/05/22 03:49:29;;;;;;;8.95;4.70;;;;;;;-145.50;100.00;65435.88;4932707;29;20061;-67
2022/05/22 03:51:56;;;;;;;9.82;4.60;;;;;;;-145.50;100.00;65435.88;4925393;28;20134;-67
2022/05/22 03:54:23;;;;;;;8.30;5.03;;;;;;;-145.50;100.00;65435.88;4925868;29;20063;-68
2022/05/22 03:56:49;;;;;;;7.75;4.40;;;;;;;-145.50;100.00;65435.88;4921536;29;20134;-67
2022/05/22 03:59:15;;;;;;;8.10;4.50;;;;;;;-145.50;100.00;65435.88;4932105;28;20059;-66
2022/05/22 04:01:42;;;;;;;8.80;4.35;;;;;;;-145.50;100.00;65435.88;4925617;29;20162;-67
2022/05/22 04:04:08;;;;;;;9.25;4.78;;;;;;;-145.50;100.00;65435.88;4922291;28;20073;-68
2022/05/22 04:06:35;;;;;;;11.20;4.82;;;;;;;-145.50;100.00;65435.88;4925188;29;20056;-67
2022/05/22 04:09:02;;;;;;;12.93;4.55;;;;;;;-145.50;100.00;65435.88;4913279;28;20051;-67
2022/05/22 04:11:29;;;;;;;7.10;4.10;;;;;;;-145.50;100.00;65435.88;4925650;29;20043;-66
2022/05/22 04:13:55;;;;;;;11.38;4.45;;;;;;;-145.50;100.00;65435.88;4926222;29;20602;-65
2022/05/22 04:16:22;;;;;;;10.07;4.90;;;;;;;-145.50;100.00;65435.88;4919363;28;20052;-67
2022/05/22 04:18:48;;;;;;;8.75;4.55;;;;;;;-145.50;100.00;65435.88;4925654;29;20055;-68
2022/05/22 04:21:15;;;;;;;8.23;3.95;;;;;;;-145.50;100.00;65435.88;4915691;28;20059;-67
2022/05/22 04:26:28;;;;;;;10.02;5.10;;;;;;;-145.50;100.00;65435.88;4915267;28;20647;-68
2022/05/22 04:28:55;;;;;;;10.15;4.47;;;;;;;-145.50;100.00;65435.88;4926215;29;20247;-67
2022/05/22 04:31:21;;;;;;;12.10;5.07;;;;;;;-145.50;100.00;65435.88;4926236;29;20493;-67
2022/05/22 04:33:48;;;;;;;12.25;5.45;;;;;;;-145.50;100.00;65435.88;4919065;28;20156;-67
2022/05/22 04:36:15;;;;;;;9.35;5.20;;;;;;;-145.50;100.00;65435.88;4918853;29;20061;-67
2022/05/22 04:38:42;;;;;;;10.52;5.00;;;;;;;-145.50;100.00;65435.88;4918044;28;20525;-68
2022/05/22 04:41:08;;;;;;;9.02;4.70;;;;;;;-145.50;100.00;65435.88;4923667;29;20138;-67
2022/05/22 04:43:35;;;;;;;10.55;4.97;;;;;;;-145.50;100.00;65435.88;4919723;28;20094;-67
2022/05/22 04:46:05;;;;;;;10.10;5.35;;;;;;;-145.50;100.00;65435.88;4927586;29;20053;-67
2022/05/22 04:48:32;;;;;;;9.95;5.00;;;;;;;-145.50;100.00;65435.88;4940687;29;20055;-67
2022/05/22 04:50:58;;;;;;;9.25;5.45;;;;;;;-145.50;100.00;65435.88;4916800;28;20051;-65
2022/05/22 04:53:28;;;;;;;10.13;5.47;;;;;;;-145.50;100.00;65435.88;4925520;29;20413;-68
2022/05/22 04:55:54;;;;;;;12.57;5.57;;;;;;;-145.50;100.00;65435.88;4919906;28;20238;-67
2022/05/22 04:58:21;;;;;;;12.63;6.63;;;;;;;-145.50;100.00;65435.88;4925005;29;20469;-67
2022/05/22 05:00:47;;;;;;;8.32;6.10;;;;;;;-145.50;100.00;65435.88;4918475;28;20083;-67
2022/05/22 05:03:14;;;;;;;14.43;7.38;;;;;;;-145.50;100.00;65435.88;4919742;29;20504;-68
2022/05/22 05:05:41;;;;;;;14.65;7.03;;;;;;;-145.50;100.00;65435.88;4932280;28;20082;-69
2022/05/22 05:08:08;;;;;;;15.45;7.18;;;;;;;-145.50;100.00;65435.88;4914815;28;20226;-67
2022/05/22 05:10:34;;;;;;;14.20;7.65;;;;;;;-145.50;100.00;65435.88;4924412;29;20051;-66
2022/05/22 05:13:01;;;;;;;12.40;8.68;;;;;;;-145.50;100.00;65435.88;4919712;29;20066;-68
2022/05/22 05:15:29;;;;;;;18.13;10.15;;;;;;;-145.50;100.00;65435.88;4922457;29;20396;-68
2022/05/22 05:17:56;;;;;;;18.52;10.55;;;;;;;-145.50;100.00;65435.88;4912046;28;20126;-67
2022/05/22 05:20:25;;;;;;;17.65;11.75;;;;;;;-145.50;100.00;65435.88;4923736;29;20082;-67
2022/05/22 05:22:52;;;;;;;23.15;14.00;;;;;;;-145.50;100.00;65435.88;4924118;29;20734;-68
2022/05/22 05:25:19;;;;;;;24.20;14.93;;;;;;;-145.50;100.00;65435.88;4919451;28;20167;-68
2022/05/22 05:27:50;;;;;;;23.50;15.10;;;;;;;-145.50;100.00;65435.88;4924101;29;20183;-67
2022/05/22 05:30:17;;;;;;;24.10;14.00;;;;;;;-145.50;100.00;65435.88;4913479;28;20111;-69
2022/05/22 05:32:44;;;;;;;19.65;11.88;;;;;;;-145.50;100.00;65435.88;4919924;29;20082;-67
2022/05/22 05:35:11;;;;;;;24.10;12.35;;;;;;;-145.50;100.00;65435.88;4919380;29;20090;-68
2022/05/22 05:37:39;;;;;;;26.27;12.50;;;;;;;-145.50;100.00;65435.88;4922991;29;20059;-68
2022/05/22 05:40:07;;;;;;;18.98;11.82;;;;;;;-145.50;100.00;65435.88;4922086;29;20083;-67
2022/05/22 05:42:35;;;;;;;19.58;10.48;;;;;;;-145.50;100.00;65435.88;4917848;29;20094;-67
2022/05/22 05:45:05;;;;;;;19.58;10.30;;;;;;;-145.50;100.00;65435.88;4915992;29;20142;-67
2022/05/22 05:47:32;;;;;;;20.02;9.80;;;;;;;-145.50;100.00;65435.88;4927004;28;20484;-67
2022/05/22 05:49:59;;;;;;;16.77;8.50;;;;;;;-145.50;100.00;65435.88;4924961;29;20130;-67
2022/05/22 05:52:25;;;;;;;14.93;7.68;;;;;;;-145.50;100.00;65435.88;4923067;28;20138;-67
2022/05/22 05:54:59;;;;;;;13.52;6.43;;;;;;;-145.50;100.00;65435.88;4925102;29;20070;-68
2022/05/22 05:57:26;;;;;;;10.55;6.38;;;;;;;-145.50;100.00;65435.88;4919974;29;20066;-67
2022/05/22 05:59:54;;;;;;;12.35;6.55;;;;;;;-145.50;100.00;65435.88;4926343;28;20048;-68
2022/05/22 06:02:21;;;;;;;11.45;6.47;;;;;;;-145.50;100.00;65435.88;4923335;29;20060;-68
2022/05/22 06:04:48;;;;;;;10.18;6.10;;;;;;;-145.50;100.00;65435.88;4926758;28;20055;-68
2022/05/22 06:07:15;;;;;;;13.10;5.20;;;;;;;-145.50;100.00;65435.88;4926276;29;20107;-70
2022/05/22 06:09:42;;;;;;;14.02;6.07;;;;;;;-145.50;100.00;65435.88;4918094;28;20150;-67
2022/05/22 06:12:08;;;;;;;14.88;6.47;;;;;;;-145.50;100.00;65435.88;4903163;29;20086;-68
2022/05/22 06:14:35;;;;;;;12.93;6.40;;;;;;;-145.50;100.00;65435.88;4917518;28;20146;-69
2022/05/22 06:17:02;;;;;;;12.00;6.57;;;;;;;-145.50;100.00;65435.88;4921070;29;20170;-68
2022/05/22 06:22:15;;;;;;;15.98;6.68;;;;;;;-145.50;100.00;65435.88;4917957;28;20052;-68
2022/05/22 06:24:43;;;;;;;12.13;6.63;;;;;;;-145.50;100.00;65435.88;4913388;29;20055;-67
2022/05/22 06:27:09;;;;;;;10.30;5.47;;;;;;;-145.50;100.00;65435.88;4911556;28;20083;-68
2022/05/22 06:29:36;;;;;;;10.13;4.47;;;;;;;-145.50;100.00;65435.88;4921031;29;20803;-69
2022/05/22 06:32:03;;;;;;;14.32;5.35;;;;;;;-145.50;100.00;65435.88;4918234;28;20163;-67
2022/05/22 06:34:36;;;;;;;9.07;4.32;;;;;;;-145.50;100.00;65435.88;4921094;29;20150;-67
2022/05/22 06:37:04;;;;;;;12.32;5.53;;;;;;;-145.50;100.00;65435.88;4925988;29;20488;-68
2022/05/22 06:42:16;;;;;;;12.10;5.38;;;;;;;-145.50;100.00;65435.88;4903148;29;20052;-67
2022/05/22 06:44:43;;;;;;;10.45;5.60;;;;;;;-145.50;100.00;65435.88;4913232;28;20060;-67
2022/05/22 06:47:10;;;;;;;12.80;5.32;;;;;;;-145.50;100.00;65435.88;4938198;29;20058;-67
2022/05/22 06:49:37;;;;;;;9.80;4.95;;;;;;;-145.50;100.00;65435.88;4939968;28;20146;-68
2022/05/22 06:52:03;;;;;;;14.52;5.47;;;;;;;-145.50;100.00;65435.88;4946150;29;20349;-67
2022/05/22 06:54:30;;;;;;;10.20;5.07;;;;;;;-145.50;100.00;65435.88;4938235;28;20148;-68
2022/05/22 06:56:57;;;;;;;8.68;3.58;;;;;;;-145.50;100.00;65435.88;4938807;29;20102;-67
2022/05/22 06:59:24;;;;;;;9.90;4.28;;;;;;;-145.50;100.00;65435.88;4946043;29;20063;-68
2022/05/22 07:01:51;;;;;;;9.27;3.67;;;;;;;-145.50;100.00;65435.88;4939457;28;20086;-68
2022/05/22 07:04:21;;;;;;;7.13;3.35;;;;;;;-145.50;100.00;65435.88;4945230;29;20086;-68
2022/05/22 07:06:48;;;;;;;5.75;3.05;;;;;;;-145.50;100.00;65435.88;4939257;28;21040;-68
2022/05/22 07:09:15;;;;;;;11.60;4.35;;;;;;;-145.50;100.00;65435.88;4938898;28;20074;-68
2022/05/22 07:11:42;;;;;;;13.10;3.42;;;;;;;-145.50;100.00;65435.88;4924945;28;20052;-67
2022/05/22 07:14:13;;;;;;;8.05;3.20;;;;;;;-145.50;100.00;65435.88;4924729;29;20059;-68
2022/05/22 07:16:40;;;;;;;10.80;3.55;;;;;;;-145.50;100.00;65435.88;4922562;29;20423;-66
2022/05/22 07:19:09;;;;;;;13.20;3.88;;;;;;;-145.50;100.00;65435.88;4919818;28;20055;-67
2022/05/22 07:21:35;;;;;;;12.90;3.42;;;;;;;-145.50;100.00;65435.88;4919829;29;20093;-68
2022/05/22 07:24:02;;;;;;;6.45;2.88;;;;;;;-145.50;100.00;65435.88;4920609;28;20107;-68
2022/05/22 07:26:30;;;;;;;11.43;3.95;;;;;;;-145.50;100.00;65435.88;4927303;29;20149;-68
2022/05/22 07:28:58;;;;;;;8.95;3.20;;;;;;;-145.50;100.00;65435.88;4927466;28;20062;-68
2022/05/22 07:31:26;;;;;;;9.57;3.30;;;;;;;-145.50;100.00;65435.88;4923957;29;20052;-68
2022/05/22 07:33:53;;;;;;;8.93;3.58;;;;;;;-145.50;100.00;65435.88;4924768;29;20055;-68
2022/05/22 07:36:20;;;;;;;9.32;3.13;;;;;;;-145.50;100.00;65435.88;4913605;28;20071;-67
2022/05/22 07:38:47;;;;;;;8.98;3.25;;;;;;;-145.50;100.00;65435.88;4919870;29;20107;-68
2022/05/22 07:41:14;;;;;;;9.20;2.67;;;;;;;-145.50;100.00;65435.88;4917124;28;20047;-67
2022/05/22 07:43:41;;;;;;;10.77;3.10;;;;;;;-145.50;100.00;65435.88;4925565;29;20701;-68
2022/05/22 07:46:12;;;;;;;8.07;2.70;;;;;;;-145.50;100.00;65435.88;4921906;28;20062;-68
2022/05/22 07:48:41;;;;;;;8.93;1.83;;;;;;;-145.50;100.00;65435.88;4916419;29;20090;-67
2022/05/22 07:51:11;;;;;;;8.68;1.85;;;;;;;-145.50;100.00;65435.88;4917062;29;20055;-67
2022/05/22 07:53:38;;;;;;;5.15;1.63;;;;;;;-145.50;100.00;65435.88;4916960;28;20051;-72
2022/05/22 07:56:05;;;;;;;6.40;1.60;;;;;;;-145.50;100.00;65435.88;4924188;29;20052;-69
2022/05/22 07:58:31;;;;;;;4.40;1.25;;;;;;;-145.50;100.00;65435.88;4917172;28;20189;-67
2022/05/22 08:00:58;;;;;;;8.10;1.90;;;;;;;-145.50;100.00;65435.88;4924215;29;20075;-68
2022/05/22 08:03:25;;;;;;;7.07;1.80;;;;;;;-145.50;100.00;65435.88;4915945;28;20154;-67
2022/05/22 08:05:53;;;;;;;10.57;2.50;;;;;;;-145.50;100.00;65435.88;4935586;29;20070;-66
2022/05/22 08:08:20;;;;;;;6.45;1.63;;;;;;;-145.50;100.00;65435.88;4944390;28;20053;-68
2022/05/22 08:10:46;;;;;;;5.82;1.50;;;;;;;-145.50;100.00;65435.88;4924005;28;20482;-68
2022/05/22 08:13:13;;;;;;;6.47;1.65;;;;;;;-145.50;100.00;65435.88;4924796;29;20651;-68
2022/05/22 08:15:42;;;;;;;5.28;1.50;;;;;;;-145.50;100.00;65435.88;4919553;28;20773;-68
2022/05/22 08:18:09;;;;;;;;;;;;;;;-145.50;100.00;65435.88;4921750;29;20877;-68
2022/05/22 08:20:38;;;;;;;6.57;1.35;;;;;;;-145.50;100.00;65435.88;4914448;28;20009;-68
2022/05/22 08:23:09;;;;;;;6.78;1.48;;;;;;;-145.50;100.00;65435.88;4930645;29;20134;-68
2022/05/22 08:25:36;;;;;;;5.80;1.38;;;;;;;-145.50;100.00;65435.88;4947219;29;20157;-68
2022/05/22 08:28:04;;;;;;;7.38;2.03;;;;;;;-145.50;100.00;65435.88;4936843;28;20636;-68
2022/05/22 08:30:31;;;;;;;4.78;1.80;;;;;;;-145.50;100.00;65435.88;4923417;29;20214;-68
2022/05/22 08:32:59;;;;;;;10.15;2.10;;;;;;;-145.50;100.00;65435.88;4914460;28;20130;-68
2022/05/22 08:35:31;;;;;;;9.57;1.90;;;;;;;-145.50;100.00;65435.88;4920079;29;20131;-67
2022/05/22 08:37:58;;;;;;;8.20;1.98;;;;;;;-145.50;100.00;65435.88;4919926;28;20689;-68
2022/05/22 08:40:28;;;;;;;6.33;1.80;;;;;;;-145.50;100.00;65435.88;4923406;29;20083;-65
2022/05/22 08:43:04;;;;;;;10.55;1.80;;;;;;;-145.50;100.00;65435.88;4926060;29;20280;-68
2022/05/22 08:45:40;;;;;;;9.15;2.35;;;;;;;-145.50;100.00;65435.88;4913831;28;20051;-68
2022/05/22 08:48:12;;;;;;;9.55;1.60;;;;;;;-145.50;100.00;65435.88;4926377;28;20058;-67
2022/05/22 08:50:43;;;;;;;6.45;1.55;;;;;;;-145.50;100.00;65435.88;4918000;28;20139;-67
2022/05/22 08:53:25;;;;;;;7.25;1.63;;;;;;;-145.50;100.00;65435.88;4929863;29;20062;-68
2022/05/22 08:58:57;;;;;;;6.35;1.95;;;;;;;-145.50;100.00;65435.88;4921346;29;20052;-68
2022/05/22 09:01:29;;;;;;;7.22;2.03;;;;;;;-145.50;100.00;65435.88;4893680;28;20622;-68
2022/05/22 09:04:11;;;;;;;3.53;1.52;;;;;;;-145.50;100.00;65435.88;4906600;29;20063;-68
2022/05/22 09:06:44;;;;;;;7.15;1.80;;;;;;;-145.50;100.00;65435.88;4916988;28;20460;-67
2022/05/22 09:09:11;;;;;;;8.20;2.03;;;;;;;-145.50;100.00;65435.88;4919139;29;20681;-68
2022/05/22 09:11:49;;;;;;;6.55;2.00;;;;;;;-145.50;100.00;65435.88;4923203;29;20631;-69
2022/05/22 09:14:27;;;;;;;9.48;2.53;;;;;;;-145.50;100.00;65435.88;4905971;29;20051;-69
2022/05/22 09:17:04;;;;;;;6.10;1.70;;;;;;;-145.50;100.00;65435.88;4919295;29;20068;-68
2022/05/22 09:19:42;;;;;;;7.25;1.80;;;;;;;-145.50;100.00;65435.88;4899905;29;20143;-68
2022/05/22 09:22:23;;;;;;;6.35;2.17;;;;;;;-145.50;100.00;65435.88;4923342;29;20059;-67
2022/05/22 09:25:01;;;;;;;7.38;2.15;;;;;;;-145.50;100.00;65435.88;4916332;28;20126;-69
2022/05/22 09:27:57;;;;;;;8.55;1.80;;;;;;;-145.50;100.00;65435.88;4919076;29;20069;-69
2022/05/22 09:31:03;;;;;;;7.38;2.05;;;;;;;-145.50;100.00;65435.88;4910909;28;20091;-67
2022/05/22 09:33:44;;;;;;;5.88;1.90;;;;;;;-145.50;100.00;65435.88;4918278;29;20055;-67
2022/05/22 09:36:26;;;;;;;5.88;2.00;;;;;;;-145.50;100.00;65435.88;4920152;29;20090;-68
2022/05/22 09:39:56;;;;;;;6.68;1.73;;;;;;;-145.50;100.00;65435.88;4924256;29;20060;-66
2022/05/22 09:42:54;;;;;;;7.22;1.90;;;;;;;-145.50;100.00;65435.88;4912852;28;20048;-68
2022/05/22 09:45:30;;;;;;;8.93;2.30;;;;;;;-145.50;100.00;65435.88;4919141;29;20163;-70
2022/05/22 09:48:15;;;;;;;6.65;2.10;;;;;;;-145.50;100.00;65435.88;4915369;28;20054;-68
2022/05/22 09:51:09;;;;;;;6.15;1.88;;;;;;;-145.50;100.00;65435.88;4920815;29;20159;-68
2022/05/22 09:54:06;;;;;;;8.00;2.00;;;;;;;-145.50;100.00;65435.88;4917100;28;20086;-68
2022/05/22 09:56:56;;;;;;;5.72;2.05;;;;;;;-145.50;100.00;65435.88;4913456;29;20052;-68
2022/05/22 09:59:53;;;;;;;7.43;2.00;;;;;;;-145.50;100.00;65435.88;4914251;28;20671;-67
2022/05/22 10:02:27;;;;;;;7.38;1.80;;;;;;;-145.50;100.00;65435.88;4922320;29;20043;-68
2022/05/22 10:05:11;;;;;;;8.68;1.77;;;;;;;-145.50;100.00;65435.88;4918441;28;20152;-65
2022/05/22 10:08:05;;;;;;;6.65;1.60;;;;;;;-145.50;100.00;65435.88;4922303;29;21067;-67
2022/05/22 10:10:39;;;;;;;6.70;1.70;;;;;;;-145.50;100.00;65435.88;4910564;28;20055;-69
2022/05/22 10:13:18;;;;;;;9.63;1.70;;;;;;;-145.50;100.00;65435.88;4920623;29;20056;-68
2022/05/22 10:16:03;;;;;;;7.22;1.70;;;;;;;-145.50;100.00;65435.88;4919845;28;20114;-67
2022/05/22 10:18:39;;;;;;;4.80;1.38;;;;;;;-145.50;100.00;65435.88;4925415;29;20059;-67
2022/05/22 10:21:40;;;;;;;4.85;1.30;;;;;;;-145.50;100.00;65435.88;4923891;29;20139;-68
2022/05/22 10:24:19;;;;;;;5.30;1.70;;;;;;;-145.50;100.00;65435.88;4904531;29;20789;-66
2022/05/22 10:27:11;;;;;;;4.47;1.40;;;;;;;-145.50;100.00;65435.88;4920316;29;20146;-67
2022/05/22 10:29:50;;;;;;;6.53;1.73;;;;;;;-145.50;100.00;65435.88;4918929;29;20436;-67
2022/05/22 10:32:28;;;;;;;5.85;1.48;;;;;;;-145.50;100.00;65435.88;4924721;29;20047;-70
2022/05/22 10:35:05;;;;;;;5.03;1.30;;;;;;;-145.50;100.00;65435.88;4918960;28;20575;-69
2022/05/22 10:37:44;;;;;;;6.57;1.88;;;;;;;-145.50;100.00;65435.88;4922689;29;20640;-68
2022/05/22 10:40:20;;;;;;;4.38;1.52;;;;;;;-145.50;100.00;65435.88;4916537;29;20066;-69
2022/05/22 10:42:52;;;;;;;5.13;1.80;;;;;;;-145.50;100.00;65435.88;4911432;29;20068;-69
2022/05/22 10:45:32;;;;;;;7.55;2.17;;;;;;;-145.50;100.00;65435.88;4921084;28;20059;-68
2022/05/22 10:48:22;;;;;;;6.88;2.45;;;;;;;-145.50;100.00;65435.88;4944162;29;20596;-66
2022/05/22 10:51:02;;;;;;;8.88;2.10;;;;;;;-145.50;100.00;65435.88;4938554;28;20055;-68
2022/05/22 10:53:29;;;;;;;5.55;2.13;;;;;;;-145.50;100.00;65435.88;4940458;29;20079;-68
2022/05/22 10:56:20;;;;;;;7.65;2.60;;;;;;;-145.50;100.00;65435.88;4926094;28;20063;-67
2022/05/22 10:58:56;;;;;;;7.00;2.80;;;;;;;-145.50;100.00;65435.88;4916966;29;20047;-69
2022/05/22 11:01:26;;;;;;;7.35;2.45;;;;;;;-145.50;100.00;65435.88;4932178;28;20712;-66
2022/05/22 11:04:19;;;;;;;5.97;2.08;;;;;;;-145.50;100.00;65435.88;4926925;29;20043;-67
2022/05/22 11:06:58;;;;;;;6.43;2.05;;;;;;;-145.50;100.00;65435.88;4915392;28;20058;-67
2022/05/22 11:09:31;;;;;;;6.60;2.20;;;;;;;-145.50;100.00;65435.88;4925017;29;20052;-68
2022/05/22 11:12:10;;;;;;;7.30;2.42;;;;;;;-145.50;100.00;65435.88;4926040;29;20798;-67
2022/05/22 11:14:37;;;;;;;7.65;2.22;;;;;;;-145.50;100.00;65435.88;4919292;28;20075;-67
2022/05/22 11:17:13;;;;;;;7.55;3.03;;;;;;;-145.50;100.00;65435.88;4927763;29;20735;-66
2022/05/22 11:19:43;;;;;;;6.43;2.40;;;;;;;-145.50;100.00;65435.88;4912386;28;20060;-68
2022/05/22 11:22:27;;;;;;;7.25;2.17;;;;;;;-145.50;100.00;65435.88;4923161;29;20500;-67
2022/05/22 11:25:02;;;;;;;6.70;2.53;;;;;;;-145.50;100.00;65435.88;4918711;28;20075;-68
2022/05/22 11:27:41;;;;;;;5.85;2.47;;;;;;;-145.50;100.00;65435.88;4923601;29;20614;-69
2022/05/22 11:30:22;;;;;;;8.82;3.25;;;;;;;-145.50;100.00;65435.88;4919218;28;20154;-69
2022/05/22 11:33:13;;;;;;;8.90;3.65;;;;;;;-145.50;100.00;65435.88;4920098;29;20135;-67
2022/05/22 11:36:01;;;;;;;8.00;3.47;;;;;;;-145.50;100.00;65435.88;4913947;28;20694;-68